createdAt,value
2018-11-03T00:00:21.791Z,50.51
2018-11-03T00:01:21.794Z,50.40
2018-11-03T00:02:21.793Z,50.60
2018-11-03T00:03:21.805Z,50.71
2018-11-03T00:04:22.016Z,50.40
2018-11-03T00:05:21.705Z,50.60
2018-11-03T00:06:21.714Z,50.40
2018-11-03T00:07:21.737Z,50.91
2018-11-03T00:08:21.724Z,50.40
2018-11-03T00:09:21.865Z,50.60
2018-11-03T00:10:21.737Z,50.60
2018-11-03T00:11:21.653Z,50.40
2018-11-03T00:12:21.661Z,50.60
2018-11-03T00:13:21.672Z,50.40
2018-11-03T00:14:21.866Z,50.81
2018-11-03T00:15:21.668Z,50.60
2018-11-03T00:16:21.677Z,50.60
2018-11-03T00:17:21.597Z,50.60
2018-11-03T00:18:21.587Z,50.53
2018-11-03T00:19:21.692Z,50.51
2018-11-03T00:20:21.635Z,50.51
2018-11-03T00:21:21.640Z,51.01
2018-11-03T00:22:21.605Z,50.60
2018-11-03T00:23:21.515Z,50.60
2018-11-03T00:24:21.643Z,50.60
2018-11-03T00:25:21.534Z,50.81
2018-11-03T00:26:21.542Z,50.91
2018-11-03T00:27:21.552Z,50.71
2018-11-03T00:28:21.644Z,43.40
2018-11-03T00:29:21.568Z,45.30
2018-11-03T00:30:21.555Z,46.70
2018-11-03T00:31:21.561Z,49.11
2018-11-03T00:32:21.480Z,51.42
2018-11-03T00:33:21.495Z,54.03
2018-11-03T00:34:21.481Z,55.71
2018-11-03T00:35:21.486Z,55.86
2018-11-03T00:36:21.390Z,56.81
2018-11-03T00:37:21.398Z,57.44
2018-11-03T00:38:21.402Z,57.98
2018-11-03T00:39:21.745Z,58.80
2018-11-03T00:40:21.454Z,59.12
2018-11-03T00:41:21.320Z,58.51
2018-11-03T00:42:21.430Z,59.12
2018-11-03T00:43:21.645Z,59.87
2018-11-03T00:44:21.445Z,59.77
2018-11-03T00:45:21.453Z,59.97
2018-11-03T00:46:21.249Z,60.07
2018-11-03T00:47:21.260Z,60.10
2018-11-03T00:48:21.258Z,60.69
2018-11-03T00:49:21.366Z,59.69
2018-11-03T00:50:21.283Z,60.92
2018-11-03T00:51:21.276Z,60.61
2018-11-03T00:52:21.285Z,60.51
2018-11-03T00:53:21.186Z,60.30
2018-11-03T00:54:21.294Z,61.25
2018-11-03T00:55:21.227Z,61.12
2018-11-03T00:56:21.207Z,60.71
2018-11-03T00:57:21.217Z,60.41
2018-11-03T00:58:21.220Z,60.85
2018-11-03T00:59:21.226Z,61.25
2018-11-03T01:00:21.128Z,61.76
2018-11-03T01:01:21.138Z,61.49
2018-11-03T01:02:21.154Z,61.46
2018-11-03T01:03:21.156Z,61.56
2018-11-03T01:04:21.156Z,60.87
2018-11-03T01:05:21.060Z,61.28
2018-11-03T01:06:21.063Z,61.28
2018-11-03T01:07:21.069Z,61.76
2018-11-03T01:08:21.082Z,61.79
2018-11-03T01:09:21.199Z,61.69
2018-11-03T01:10:20.987Z,61.79
2018-11-03T01:11:20.995Z,61.99
2018-11-03T01:12:21.001Z,61.69
2018-11-03T01:13:21.006Z,61.79
2018-11-03T01:14:21.114Z,62.10
2018-11-03T01:15:21.026Z,61.49
2018-11-03T01:16:20.927Z,61.79
2018-11-03T01:17:20.931Z,61.79
2018-11-03T01:18:20.956Z,62.20
2018-11-03T01:19:21.045Z,62.20
2018-11-03T01:20:20.946Z,61.79
2018-11-03T01:21:20.972Z,61.49
2018-11-03T01:22:20.857Z,62.23
2018-11-03T01:23:20.872Z,61.72
2018-11-03T01:24:20.974Z,62.02
2018-11-03T01:25:20.879Z,62.33
2018-11-03T01:26:20.889Z,62.54
2018-11-03T01:27:20.902Z,61.82
2018-11-03T01:28:20.795Z,62.02
2018-11-03T01:29:20.906Z,62.13
2018-11-03T01:30:20.806Z,62.33
2018-11-03T01:31:20.812Z,61.92
2018-11-03T01:32:20.833Z,62.02
2018-11-03T01:33:20.846Z,61.72
2018-11-03T01:34:20.729Z,61.61
2018-11-03T01:35:20.841Z,62.33
2018-11-03T01:36:20.748Z,62.13
2018-11-03T01:37:20.755Z,62.23
2018-11-03T01:38:20.766Z,61.75
2018-11-03T01:39:20.761Z,62.26
2018-11-03T01:40:20.772Z,62.57
2018-11-03T01:41:20.694Z,62.23
2018-11-03T01:42:20.679Z,62.33
2018-11-03T01:43:20.684Z,61.82
2018-11-03T01:44:20.698Z,61.82
2018-11-03T01:45:20.806Z,61.92
2018-11-03T01:46:20.602Z,62.02
2018-11-03T01:47:20.611Z,61.41
2018-11-03T01:48:20.618Z,62.16
2018-11-03T01:49:20.624Z,62.26
2018-11-03T01:50:20.739Z,62.16
2018-11-03T01:51:20.648Z,62.57
2018-11-03T01:52:20.540Z,62.23
2018-11-03T01:53:20.547Z,62.23
2018-11-03T01:54:20.552Z,62.26
2018-11-03T01:55:20.666Z,61.85
2018-11-03T01:56:20.565Z,62.16
2018-11-03T01:57:20.573Z,62.57
2018-11-03T01:58:20.496Z,62.57
2018-11-03T01:59:20.484Z,62.57
2018-11-03T02:00:20.586Z,62.77
2018-11-03T02:01:20.503Z,62.57
2018-11-03T02:02:20.503Z,62.43
2018-11-03T02:03:20.512Z,62.23
2018-11-03T02:04:20.432Z,62.13
2018-11-03T02:05:20.419Z,62.36
2018-11-03T02:06:20.544Z,61.92
2018-11-03T02:07:20.429Z,61.61
2018-11-03T02:08:20.438Z,61.65
2018-11-03T02:09:20.343Z,62.26
2018-11-03T02:10:20.357Z,62.16
2018-11-03T02:11:20.451Z,62.36
2018-11-03T02:12:20.363Z,62.87
2018-11-03T02:13:20.360Z,62.87
2018-11-03T02:14:20.388Z,62.87
2018-11-03T02:15:20.272Z,62.98
2018-11-03T02:16:20.385Z,62.57
2018-11-03T02:17:20.285Z,62.36
2018-11-03T02:18:20.291Z,62.54
2018-11-03T02:19:20.297Z,62.66
2018-11-03T02:20:20.324Z,62.46
2018-11-03T02:21:20.309Z,62.98
2018-11-03T02:22:20.212Z,62.84
2018-11-03T02:23:20.219Z,61.72
2018-11-03T02:24:20.225Z,61.82
2018-11-03T02:25:20.233Z,62.63
2018-11-03T02:26:20.356Z,62.74
2018-11-03T02:27:20.157Z,62.57
2018-11-03T02:28:20.148Z,62.54
2018-11-03T02:29:20.176Z,62.74
2018-11-03T02:30:20.162Z,62.54
2018-11-03T02:31:20.168Z,62.63
2018-11-03T02:32:20.275Z,62.43
2018-11-03T02:33:20.077Z,62.84
2018-11-03T02:34:20.099Z,62.23
2018-11-03T02:35:20.091Z,62.23
2018-11-03T02:36:20.096Z,62.23
2018-11-03T02:37:20.207Z,62.02
2018-11-03T02:38:20.108Z,62.23
2018-11-03T02:39:20.014Z,62.54
2018-11-03T02:40:20.030Z,62.84
2018-11-03T02:41:20.025Z,62.43
2018-11-03T02:42:20.135Z,62.23
2018-11-03T02:43:20.039Z,62.33
2018-11-03T02:44:20.047Z,61.82
2018-11-03T02:45:19.950Z,61.72
2018-11-03T02:46:19.967Z,61.82
2018-11-03T02:47:20.065Z,62.02
2018-11-03T02:48:19.969Z,61.41
2018-11-03T02:49:19.974Z,61.21
2018-11-03T02:50:19.979Z,61.92
2018-11-03T02:51:19.884Z,62.26
2018-11-03T02:52:20.021Z,62.36
2018-11-03T02:53:19.896Z,62.36
2018-11-03T02:54:19.902Z,61.72
2018-11-03T02:55:19.909Z,62.77
2018-11-03T02:56:19.919Z,62.77
2018-11-03T02:57:19.818Z,61.72
2018-11-03T02:58:19.928Z,61.82
2018-11-03T02:59:19.839Z,62.33
2018-11-03T03:00:19.838Z,61.72
2018-11-03T03:01:19.845Z,61.41
2018-11-03T03:02:19.751Z,61.72
2018-11-03T03:03:19.857Z,61.72
2018-11-03T03:04:19.762Z,61.82
2018-11-03T03:05:19.786Z,62.54
2018-11-03T03:06:19.774Z,62.54
2018-11-03T03:07:19.780Z,62.23
2018-11-03T03:08:19.786Z,62.02
2018-11-03T03:09:19.689Z,61.21
2018-11-03T03:10:19.697Z,61.92
2018-11-03T03:11:19.727Z,61.82
2018-11-03T03:12:19.711Z,61.82
2018-11-03T03:13:19.819Z,61.65
2018-11-03T03:14:19.620Z,61.92
2018-11-03T03:15:19.626Z,61.61
2018-11-03T03:16:19.640Z,62.23
2018-11-03T03:17:19.654Z,61.85
2018-11-03T03:18:19.747Z,62.05
2018-11-03T03:19:19.651Z,61.75
2018-11-03T03:20:19.556Z,61.82
2018-11-03T03:21:19.560Z,61.95
2018-11-03T03:22:19.567Z,62.26
2018-11-03T03:23:19.690Z,62.46
2018-11-03T03:24:19.581Z,62.57
2018-11-03T03:25:19.586Z,62.36
2018-11-03T03:26:19.489Z,62.16
2018-11-03T03:27:19.497Z,62.57
2018-11-03T03:28:19.605Z,62.26
2018-11-03T03:29:19.609Z,61.75
2018-11-03T03:30:19.615Z,61.65
2018-11-03T03:31:19.523Z,62.26
2018-11-03T03:32:19.425Z,62.29
2018-11-03T03:33:19.432Z,61.85
2018-11-03T03:34:19.541Z,62.26
2018-11-03T03:35:19.459Z,61.77
2018-11-03T03:36:19.458Z,62.29
2018-11-03T03:37:19.461Z,62.49
2018-11-03T03:38:19.366Z,62.08
2018-11-03T03:39:19.470Z,62.70
2018-11-03T03:40:19.376Z,62.77
2018-11-03T03:41:19.394Z,62.16
2018-11-03T03:42:19.396Z,62.46
2018-11-03T03:43:19.392Z,62.16
2018-11-03T03:44:19.405Z,62.66
2018-11-03T03:45:19.305Z,62.05
2018-11-03T03:46:19.314Z,61.95
2018-11-03T03:47:19.324Z,62.08
2018-11-03T03:48:19.323Z,61.67
2018-11-03T03:49:19.329Z,62.39
2018-11-03T03:50:19.233Z,62.39
2018-11-03T03:51:19.241Z,62.49
2018-11-03T03:52:19.245Z,62.59
2018-11-03T03:53:19.293Z,61.88
2018-11-03T03:54:19.362Z,61.88
2018-11-03T03:55:19.171Z,62.59
2018-11-03T03:56:19.170Z,61.98
2018-11-03T03:57:19.177Z,62.18
2018-11-03T03:58:19.182Z,62.08
2018-11-03T03:59:19.316Z,62.18
2018-11-03T04:00:19.200Z,62.18
2018-11-03T04:01:19.097Z,62.08
2018-11-03T04:02:19.103Z,62.29
2018-11-03T04:03:19.109Z,62.49
2018-11-03T04:04:19.115Z,62.29
2018-11-03T04:05:19.225Z,62.49
2018-11-03T04:06:19.149Z,62.29
2018-11-03T04:07:19.648Z,62.39
2018-11-03T04:08:19.038Z,62.59
2018-11-03T04:09:19.045Z,62.18
2018-11-03T04:10:19.153Z,62.49
2018-11-03T04:11:19.058Z,62.39
2018-11-03T04:12:19.094Z,61.77
2018-11-03T04:13:18.969Z,62.18
2018-11-03T04:14:18.985Z,61.77
2018-11-03T04:15:19.082Z,61.88
2018-11-03T04:16:18.987Z,62.21
2018-11-03T04:17:18.995Z,62.39
2018-11-03T04:18:19.016Z,62.62
2018-11-03T04:19:18.906Z,62.70
2018-11-03T04:20:19.013Z,61.70
2018-11-03T04:21:18.916Z,61.91
2018-11-03T04:22:18.925Z,62.49
2018-11-03T04:23:18.937Z,62.42
2018-11-03T04:24:18.957Z,62.70
2018-11-03T04:25:18.945Z,62.52
2018-11-03T04:26:18.846Z,63.13
2018-11-03T04:27:18.852Z,63.41
2018-11-03T04:28:18.865Z,63.10
2018-11-03T04:29:18.864Z,62.52
2018-11-03T04:30:19.000Z,62.62
2018-11-03T04:31:18.776Z,62.42
2018-11-03T04:32:18.781Z,62.62
2018-11-03T04:33:18.787Z,62.42
2018-11-03T04:34:18.793Z,63.54
2018-11-03T04:35:18.800Z,63.13
2018-11-03T04:36:18.819Z,62.62
2018-11-03T04:37:18.711Z,62.52
2018-11-03T04:38:18.716Z,62.52
2018-11-03T04:39:18.723Z,62.52
2018-11-03T04:40:18.728Z,62.55
2018-11-03T04:41:18.851Z,62.45
2018-11-03T04:42:18.645Z,62.55
2018-11-03T04:43:18.653Z,62.45
2018-11-03T04:44:18.652Z,62.45
2018-11-03T04:45:18.701Z,62.24
2018-11-03T04:46:18.768Z,62.65
2018-11-03T04:47:18.677Z,62.76
2018-11-03T04:48:18.575Z,62.14
2018-11-03T04:49:18.592Z,62.32
2018-11-03T04:50:18.591Z,62.32
2018-11-03T04:51:18.698Z,62.55
2018-11-03T04:52:18.604Z,62.45
2018-11-03T04:53:18.607Z,62.62
2018-11-03T04:54:18.513Z,62.24
2018-11-03T04:55:18.688Z,62.04
2018-11-03T04:56:18.625Z,62.04
2018-11-03T04:57:18.537Z,61.73
2018-11-03T04:58:18.535Z,61.93
2018-11-03T04:59:18.541Z,62.04
2018-11-03T05:00:18.487Z,62.14
2018-11-03T05:01:18.567Z,62.24
2018-11-03T05:02:18.493Z,62.35
2018-11-03T05:03:18.464Z,62.24
2018-11-03T05:04:18.472Z,61.93
2018-11-03T05:05:18.379Z,61.93
2018-11-03T05:06:18.483Z,61.73
2018-11-03T05:07:18.400Z,62.04
2018-11-03T05:08:18.393Z,61.73
2018-11-03T05:09:18.399Z,62.04
2018-11-03T05:10:18.485Z,62.14
2018-11-03T05:11:18.312Z,62.14
2018-11-03T05:12:18.420Z,61.93
2018-11-03T05:13:18.341Z,61.96
2018-11-03T05:14:18.331Z,62.35
2018-11-03T05:15:18.339Z,62.27
2018-11-03T05:16:18.343Z,62.37
2018-11-03T05:17:18.349Z,62.78
2018-11-03T05:18:18.252Z,62.68
2018-11-03T05:19:18.269Z,62.58
2018-11-03T05:20:18.264Z,62.37
2018-11-03T05:21:18.319Z,62.37
2018-11-03T05:22:18.381Z,62.37
2018-11-03T05:23:18.181Z,62.07
2018-11-03T05:24:18.188Z,62.78
2018-11-03T05:25:18.207Z,62.37
2018-11-03T05:26:18.204Z,62.48
2018-11-03T05:27:18.310Z,62.07
2018-11-03T05:28:18.213Z,62.37
2018-11-03T05:29:18.116Z,62.37
2018-11-03T05:30:18.123Z,61.76
2018-11-03T05:31:18.226Z,61.55
2018-11-03T05:32:18.173Z,62.48
2018-11-03T05:33:18.244Z,62.27
2018-11-03T05:34:18.148Z,62.61
2018-11-03T05:35:18.052Z,62.61
2018-11-03T05:36:18.059Z,62.58
2018-11-03T05:37:18.065Z,62.37
2018-11-03T05:38:18.192Z,62.27
2018-11-03T05:39:18.078Z,61.96
2018-11-03T05:40:17.983Z,61.96
2018-11-03T05:41:17.988Z,62.19
2018-11-03T05:42:17.998Z,62.10
2018-11-03T05:43:18.106Z,62.10
2018-11-03T05:44:18.018Z,62.40
2018-11-03T05:45:18.017Z,62.30
2018-11-03T05:46:17.929Z,61.99
2018-11-03T05:47:17.930Z,62.10
2018-11-03T05:48:18.036Z,62.30
2018-11-03T05:49:17.942Z,62.71
2018-11-03T05:50:17.941Z,62.71
2018-11-03T05:51:17.948Z,62.40
2018-11-03T05:52:17.853Z,62.61
2018-11-03T05:53:17.982Z,62.61
2018-11-03T05:54:17.870Z,62.71
2018-11-03T05:55:17.985Z,62.71
2018-11-03T05:56:17.879Z,62.27
2018-11-03T05:57:17.886Z,62.51
2018-11-03T05:58:17.913Z,62.51
2018-11-03T05:59:17.794Z,62.51
2018-11-03T06:00:17.800Z,62.61
2018-11-03T06:01:17.806Z,62.84
2018-11-03T06:02:17.813Z,63.12
2018-11-03T06:03:17.926Z,62.51
2018-11-03T06:04:17.742Z,62.81
2018-11-03T06:05:17.730Z,62.71
2018-11-03T06:06:17.736Z,62.71
2018-11-03T06:07:17.745Z,62.40
2018-11-03T06:08:17.851Z,62.61
2018-11-03T06:09:17.656Z,62.61
2018-11-03T06:10:17.667Z,62.30
2018-11-03T06:11:17.676Z,62.40
2018-11-03T06:12:17.673Z,62.48
2018-11-03T06:13:17.781Z,61.58
2018-11-03T06:14:17.688Z,62.19
2018-11-03T06:15:17.596Z,61.79
2018-11-03T06:16:17.595Z,62.10
2018-11-03T06:17:17.611Z,62.51
2018-11-03T06:18:17.822Z,63.94
2018-11-03T06:19:17.613Z,63.40
2018-11-03T06:20:17.640Z,62.58
2018-11-03T06:21:17.530Z,61.83
2018-11-03T06:22:17.588Z,62.35
2018-11-03T06:23:17.549Z,61.01
2018-11-03T06:24:17.655Z,60.99
2018-11-03T06:25:17.550Z,64.84
2018-11-03T06:26:19.357Z,58.43
2018-11-03T06:27:17.467Z,59.58
2018-11-03T06:28:17.468Z,59.78
2018-11-03T06:29:17.574Z,59.38
2018-11-03T06:30:17.495Z,59.92
2018-11-03T06:31:17.484Z,59.71
2018-11-03T06:32:17.490Z,60.02
2018-11-03T06:33:17.416Z,60.74
2018-11-03T06:34:17.504Z,60.53
2018-11-03T06:35:17.466Z,59.84
2018-11-03T06:36:17.414Z,60.53
2018-11-03T06:37:17.423Z,59.64
2018-11-03T06:38:17.333Z,60.25
2018-11-03T06:39:17.434Z,60.05
2018-11-03T06:40:17.337Z,61.18
2018-11-03T06:41:17.342Z,60.42
2018-11-03T06:42:17.352Z,60.02
2018-11-03T06:43:17.357Z,59.84
2018-11-03T06:44:17.383Z,60.22
2018-11-03T06:45:17.268Z,60.33
2018-11-03T06:46:17.272Z,59.50
2018-11-03T06:47:17.407Z,59.81
2018-11-03T06:48:17.290Z,59.81
2018-11-03T06:49:17.393Z,60.05
2018-11-03T06:50:17.204Z,59.43
2018-11-03T06:51:17.202Z,60.35
2018-11-03T06:52:17.300Z,61.04
2018-11-03T06:53:17.213Z,60.33
2018-11-03T06:54:17.323Z,59.92
2018-11-03T06:55:17.228Z,60.12
2018-11-03T06:56:17.136Z,59.92
2018-11-03T06:57:17.142Z,59.71
2018-11-03T06:58:17.142Z,59.92
2018-11-03T06:59:17.172Z,59.00
2018-11-03T07:00:17.259Z,60.02
2018-11-03T07:01:17.064Z,59.94
2018-11-03T07:02:17.069Z,59.71
2018-11-03T07:03:17.072Z,59.94
2018-11-03T07:04:17.079Z,59.64
2018-11-03T07:05:17.293Z,60.46
2018-11-03T07:06:17.097Z,60.25
2018-11-03T07:07:16.997Z,59.84
2018-11-03T07:08:17.001Z,59.94
2018-11-03T07:09:17.011Z,60.25
2018-11-03T07:10:17.140Z,59.53
2018-11-03T07:11:17.060Z,59.61
2018-11-03T07:12:17.120Z,59.53
2018-11-03T07:13:17.145Z,60.15
2018-11-03T07:14:16.945Z,59.84
2018-11-03T07:15:17.050Z,59.71
2018-11-03T07:16:16.963Z,60.56
2018-11-03T07:17:16.960Z,59.53
2018-11-03T07:18:16.981Z,59.81
2018-11-03T07:19:16.867Z,59.50
2018-11-03T07:20:16.982Z,60.02
2018-11-03T07:21:16.880Z,59.92
2018-11-03T07:22:24.464Z,59.61
2018-11-03T07:23:16.895Z,60.12
2018-11-03T07:24:16.912Z,59.81
2018-11-03T07:25:16.903Z,59.71
2018-11-03T07:26:16.810Z,59.81
2018-11-03T07:27:16.870Z,60.42
2018-11-03T07:28:16.820Z,60.19
2018-11-03T07:29:16.827Z,60.19
2018-11-03T07:30:16.841Z,59.58
2018-11-03T07:31:16.840Z,59.99
2018-11-03T07:32:17.167Z,59.78
2018-11-03T07:33:16.756Z,59.76
2018-11-03T07:34:16.758Z,59.25
2018-11-03T07:35:16.772Z,59.27
2018-11-03T07:36:16.776Z,59.14
2018-11-03T07:37:16.677Z,60.19
2018-11-03T07:38:16.681Z,59.55
2018-11-03T07:39:16.696Z,60.17
2018-11-03T07:40:16.709Z,59.25
2018-11-03T07:41:16.845Z,60.06
2018-11-03T07:42:16.601Z,59.25
2018-11-03T07:43:16.607Z,59.96
2018-11-03T07:44:16.635Z,60.17
2018-11-03T07:45:16.628Z,59.45
2018-11-03T07:46:16.729Z,59.53
2018-11-03T07:47:16.633Z,59.66
2018-11-03T07:48:16.678Z,60.03
2018-11-03T07:49:16.877Z,59.22
2018-11-03T07:50:17.573Z,58.70
2018-11-03T07:51:16.663Z,59.12
2018-11-03T07:52:16.562Z,57.99
2018-11-03T07:53:16.569Z,58.40
2018-11-03T07:54:16.505Z,59.22
2018-11-03T07:55:16.502Z,58.61
2018-11-03T07:56:16.588Z,58.09
2018-11-03T07:57:16.492Z,59.73
2018-11-03T07:58:16.532Z,68.05
2018-11-03T08:00:27.312Z,64.47
2018-11-03T08:01:26.970Z,62.04
2018-11-03T08:02:26.868Z,59.44
2018-11-03T08:03:26.773Z,59.48
2018-11-03T08:04:26.811Z,58.11
2018-11-03T08:05:26.916Z,57.04
2018-11-03T08:06:26.969Z,55.68
2018-11-03T08:07:26.816Z,55.04
2018-11-03T08:08:26.830Z,53.78
2018-11-03T08:09:26.706Z,53.42
2018-11-03T08:10:26.713Z,52.29
2018-11-03T08:11:26.840Z,51.56
2018-11-03T08:12:26.757Z,50.90
2018-11-03T08:13:26.730Z,49.90
2018-11-03T08:14:26.739Z,49.87
2018-11-03T08:15:26.715Z,49.15
2018-11-03T08:16:26.759Z,48.82
2018-11-03T08:17:26.660Z,48.61
2018-11-03T08:18:27.452Z,48.79
2018-11-03T08:19:26.718Z,47.69
2018-11-03T08:20:26.683Z,47.86
2018-11-03T08:21:26.942Z,47.66
2018-11-03T08:24:15.491Z,47.74
2018-11-03T08:27:52.540Z,46.31
2018-11-03T08:28:52.048Z,47.22
2018-11-03T08:29:52.304Z,46.41
2018-11-03T08:30:52.039Z,46.41
2018-11-03T08:31:52.119Z,46.29
2018-11-03T08:32:51.965Z,46.29
2018-11-03T08:33:52.000Z,46.19
2018-11-03T08:34:51.992Z,45.87
2018-11-03T08:35:51.979Z,45.97
2018-11-03T08:36:51.899Z,46.67
2018-11-03T08:39:01.241Z,46.27
2018-11-03T08:44:30.874Z,45.25
2018-11-03T08:45:30.516Z,45.95
2018-11-03T08:46:30.946Z,45.25
2018-11-03T08:47:30.564Z,45.95
2018-11-03T08:48:33.039Z,45.25
2018-11-03T08:55:51.876Z,45.22
2018-11-03T08:57:04.371Z,45.22
2018-11-03T08:59:00.976Z,44.52
2018-11-03T09:01:12.241Z,44.52
2018-11-03T09:03:23.788Z,44.52
2018-11-03T09:04:23.875Z,45.02
2018-11-03T09:08:13.152Z,45.53
2018-11-03T09:10:40.377Z,45.53
2018-11-03T09:11:40.233Z,45.62
2018-11-03T09:12:40.049Z,45.53
2018-11-03T09:13:39.900Z,45.42
2018-11-03T09:14:39.856Z,45.53
2018-11-03T09:15:39.749Z,45.72
2018-11-03T09:16:39.742Z,45.22
2018-11-03T09:17:39.776Z,44.82
2018-11-03T09:18:39.854Z,45.12
2018-11-03T09:19:39.654Z,45.22
2018-11-03T09:20:39.663Z,45.12
2018-11-03T09:21:39.722Z,45.32
2018-11-03T09:22:39.780Z,45.14
2018-11-03T09:23:39.799Z,45.34
2018-11-03T09:24:39.694Z,45.84
2018-11-03T09:25:39.635Z,45.45
2018-11-03T09:26:39.603Z,45.75
2018-11-03T09:27:39.598Z,45.84
2018-11-03T09:28:39.705Z,45.45
2018-11-03T09:29:39.633Z,45.25
2018-11-03T09:30:39.681Z,45.54
2018-11-03T09:31:39.531Z,45.54
2018-11-03T09:32:39.538Z,45.34
2018-11-03T09:33:39.754Z,45.45
2018-11-03T09:34:39.654Z,45.75
2018-11-03T09:35:39.558Z,45.65
2018-11-03T09:36:39.568Z,45.84
2018-11-03T09:37:39.465Z,45.84
2018-11-03T09:38:39.642Z,45.95
2018-11-03T09:41:11.275Z,45.75
2018-11-03T09:42:29.684Z,45.95
2018-11-03T09:47:34.950Z,45.77
2018-11-03T09:48:33.893Z,45.97
2018-11-03T09:50:50.677Z,45.97
2018-11-03T09:51:50.130Z,45.87
2018-11-03T09:52:49.829Z,45.97
2018-11-03T09:53:52.211Z,45.77
2018-11-03T09:54:50.934Z,45.87
2018-11-03T09:55:49.841Z,45.87
2018-11-03T09:56:49.957Z,45.97
2018-11-03T09:57:49.825Z,45.47
2018-11-03T09:58:49.779Z,45.77
2018-11-03T09:59:49.872Z,45.87
2018-11-03T10:00:49.743Z,45.39
2018-11-03T10:01:49.770Z,45.39
2018-11-03T10:02:49.763Z,45.47
2018-11-03T10:03:49.775Z,45.18
2018-11-03T10:04:49.761Z,45.57
2018-11-03T10:05:49.667Z,45.49
2018-11-03T10:06:49.677Z,45.79
2018-11-03T10:07:49.784Z,45.89
2018-11-03T10:08:49.697Z,45.59
2018-11-03T10:09:49.802Z,45.49
2018-11-03T10:10:49.634Z,45.99
2018-11-03T10:11:52.514Z,45.49
2018-11-03T10:15:33.773Z,45.89
2018-11-03T10:16:33.206Z,46.09
2018-11-03T10:17:33.089Z,46.09
2018-11-03T10:18:33.026Z,46.07
2018-11-03T10:19:33.134Z,45.69
2018-11-03T10:20:33.324Z,45.87
2018-11-03T10:21:32.874Z,45.97
2018-11-03T10:22:33.003Z,45.87
2018-11-03T10:23:32.944Z,46.07
2018-11-03T10:24:32.908Z,45.87
2018-11-03T10:25:32.922Z,45.75
2018-11-03T10:26:32.857Z,45.75
2018-11-03T10:27:32.827Z,45.45
2018-11-03T10:28:32.823Z,45.12
2018-11-03T10:29:33.343Z,45.42
2018-11-03T10:30:33.764Z,45.83
2018-11-03T10:31:32.749Z,45.22
2018-11-03T10:32:32.849Z,45.20
2018-11-03T10:33:32.845Z,45.12
2018-11-03T10:34:33.188Z,44.80
2018-11-03T10:35:33.810Z,44.90
2018-11-03T10:36:32.776Z,44.80
2018-11-03T10:37:32.892Z,44.60
2018-11-03T10:38:33.189Z,44.80
2018-11-03T10:39:32.988Z,44.60
2018-11-03T10:40:34.562Z,44.50
2018-11-03T10:41:33.348Z,44.90
2018-11-03T10:42:32.710Z,44.90
2018-11-03T10:43:32.623Z,45.00
2018-11-03T10:44:33.080Z,44.78
2018-11-03T10:45:33.240Z,45.00
2018-11-03T10:46:33.884Z,44.70
2018-11-03T10:47:33.350Z,44.90
2018-11-03T10:48:32.576Z,44.68
2018-11-03T10:49:32.601Z,44.98
2018-11-03T10:50:33.292Z,44.98
2018-11-03T10:51:32.560Z,44.80
2018-11-03T10:52:32.821Z,44.70
2018-11-03T10:53:32.621Z,44.70
2018-11-03T10:54:32.608Z,44.98
2018-11-03T10:55:32.584Z,44.90
2018-11-03T10:56:32.635Z,44.90
2018-11-03T10:57:32.506Z,44.90
2018-11-03T10:58:32.496Z,44.50
2018-11-03T10:59:32.504Z,44.80
2018-11-03T11:00:32.845Z,45.00
2018-11-03T11:01:32.434Z,44.50
2018-11-03T11:02:32.427Z,44.70
2018-11-03T11:03:32.500Z,45.12
2018-11-03T11:04:32.439Z,44.92
2018-11-03T11:05:32.454Z,44.52
2018-11-03T11:06:32.546Z,44.90
2018-11-03T11:07:32.349Z,44.90
2018-11-03T11:08:32.354Z,44.52
2018-11-03T11:09:32.376Z,45.02
2018-11-03T11:10:32.382Z,45.12
2018-11-03T11:11:32.475Z,45.02
2018-11-03T11:12:32.289Z,45.12
2018-11-03T11:13:32.366Z,45.12
2018-11-03T11:14:32.293Z,44.92
2018-11-03T11:15:32.301Z,45.02
2018-11-03T11:16:32.610Z,44.92
2018-11-03T11:17:32.341Z,45.22
2018-11-03T11:18:32.216Z,45.12
2018-11-03T11:19:32.226Z,44.82
2018-11-03T11:20:32.236Z,45.02
2018-11-03T11:21:32.476Z,44.72
2018-11-03T11:22:32.256Z,45.42
2018-11-03T11:23:32.326Z,45.12
2018-11-03T11:24:32.191Z,45.53
2018-11-03T11:25:32.213Z,45.42
2018-11-03T11:26:32.267Z,45.12
2018-11-03T11:27:32.192Z,45.32
2018-11-03T11:28:32.192Z,45.02
2018-11-03T11:29:32.185Z,45.53
2018-11-03T11:30:32.194Z,45.42
2018-11-03T11:31:32.274Z,45.22
2018-11-03T11:32:32.251Z,45.32
2018-11-03T11:33:32.112Z,45.32
2018-11-03T11:34:32.120Z,45.83
2018-11-03T11:35:32.128Z,45.32
2018-11-03T11:36:32.033Z,45.62
2018-11-03T11:37:32.224Z,45.40
2018-11-03T11:38:32.100Z,45.83
2018-11-03T11:39:32.041Z,45.32
2018-11-03T11:40:32.044Z,45.32
2018-11-03T11:41:32.055Z,45.32
2018-11-03T11:42:32.057Z,45.53
2018-11-03T11:43:31.999Z,45.32
2018-11-03T11:44:31.974Z,45.53
2018-11-03T11:45:32.003Z,45.42
2018-11-03T11:46:31.991Z,45.42
2018-11-03T11:47:32.102Z,45.22
2018-11-03T11:48:31.894Z,45.83
2018-11-03T11:49:31.904Z,45.62
2018-11-03T11:50:31.902Z,45.62
2018-11-03T11:51:31.905Z,45.62
2018-11-03T11:52:32.025Z,45.42
2018-11-03T11:53:31.959Z,45.72
2018-11-03T11:54:31.824Z,45.53
2018-11-03T11:55:31.833Z,45.92
2018-11-03T11:56:31.863Z,45.92
2018-11-03T11:57:31.844Z,45.92
2018-11-03T11:58:31.958Z,46.15
2018-11-03T11:59:31.859Z,45.92
2018-11-03T12:00:31.833Z,46.53
2018-11-03T12:03:09.762Z,45.92
2018-11-03T12:04:09.585Z,46.03
2018-11-03T12:05:09.386Z,46.12
2018-11-03T12:06:09.443Z,46.03
2018-11-03T12:07:09.390Z,45.62
2018-11-03T12:08:09.512Z,45.72
2018-11-03T12:09:09.405Z,45.83
2018-11-03T12:10:09.529Z,45.62
2018-11-03T12:11:09.300Z,45.72
2018-11-03T12:12:09.311Z,45.83
2018-11-03T12:13:09.333Z,45.62
2018-11-03T12:14:09.443Z,45.45
2018-11-03T12:15:09.434Z,45.83
2018-11-03T12:16:10.385Z,45.75
2018-11-03T12:17:09.237Z,45.72
2018-11-03T12:18:09.252Z,45.84
2018-11-03T12:19:09.366Z,45.65
2018-11-03T12:20:09.274Z,45.75
2018-11-03T12:21:09.266Z,45.75
2018-11-03T12:22:09.274Z,45.95
2018-11-03T12:23:09.176Z,45.95
2018-11-03T12:24:09.293Z,46.15
2018-11-03T12:25:09.190Z,46.04
2018-11-03T12:26:09.196Z,45.75
2018-11-03T12:27:09.207Z,45.95
2018-11-03T12:28:09.206Z,45.95
2018-11-03T12:29:09.318Z,45.95
2018-11-03T12:30:09.125Z,45.95
2018-11-03T12:31:09.132Z,45.95
2018-11-03T12:32:09.132Z,45.84
2018-11-03T12:33:09.142Z,45.84
2018-11-03T12:34:09.246Z,45.84
2018-11-03T12:35:09.053Z,45.84
2018-11-03T12:36:09.058Z,45.95
2018-11-03T12:37:09.059Z,45.75
2018-11-03T12:38:09.054Z,45.72
2018-11-03T12:39:09.079Z,45.75
2018-11-03T12:40:09.179Z,46.15
2018-11-03T12:41:09.033Z,45.84
2018-11-03T12:42:09.002Z,45.95
2018-11-03T12:43:09.001Z,46.25
2018-11-03T12:44:09.012Z,45.65
2018-11-03T12:45:09.161Z,45.95
2018-11-03T12:46:09.018Z,45.95
2018-11-03T12:47:08.927Z,45.95
2018-11-03T12:48:08.987Z,46.25
2018-11-03T12:49:08.941Z,45.95
2018-11-03T12:50:09.063Z,45.84
2018-11-03T12:51:08.944Z,45.95
2018-11-03T12:52:08.939Z,45.95
2018-11-03T12:53:08.860Z,46.15
2018-11-03T12:54:08.865Z,45.95
2018-11-03T12:55:08.969Z,45.84
2018-11-03T12:56:08.873Z,45.65
2018-11-03T12:57:08.894Z,45.95
2018-11-03T12:58:08.889Z,45.75
2018-11-03T12:59:08.829Z,45.75
2018-11-03T13:00:08.794Z,45.95
2018-11-03T13:01:08.920Z,45.75
2018-11-03T13:02:08.824Z,46.35
2018-11-03T13:03:08.864Z,45.95
2018-11-03T13:04:08.826Z,45.95
2018-11-03T13:05:08.816Z,46.15
2018-11-03T13:06:08.826Z,46.45
2018-11-03T13:07:08.755Z,46.85
2018-11-03T13:08:08.871Z,46.45
2018-11-03T13:09:08.753Z,46.47
2018-11-03T13:10:08.769Z,46.17
2018-11-03T13:11:08.753Z,46.17
2018-11-03T13:12:08.724Z,46.27
2018-11-03T13:13:08.671Z,47.38
2018-11-03T13:14:08.664Z,47.25
2018-11-03T13:15:08.690Z,46.15
2018-11-03T13:16:08.782Z,46.42
2018-11-03T13:17:08.585Z,46.11
2018-11-03T13:18:08.632Z,45.48
2018-11-03T13:19:08.598Z,45.68
2018-11-03T13:20:08.604Z,45.46
2018-11-03T13:21:08.710Z,44.96
2018-11-03T13:22:08.615Z,44.43
2018-11-03T13:23:08.549Z,44.64
2018-11-03T13:24:08.549Z,44.51
2018-11-03T13:25:08.533Z,43.71
2018-11-03T13:26:08.643Z,44.32
2018-11-03T13:27:08.572Z,44.51
2018-11-03T13:28:08.548Z,43.91
2018-11-03T13:29:08.457Z,44.12